createdAt,value
2023-05-10T00:00:56.898Z,13.80
2023-05-10T00:03:23.786Z,13.80
2023-05-10T00:05:50.612Z,13.80
2023-05-10T00:08:17.346Z,13.80
2023-05-10T00:10:44.027Z,13.90
2023-05-10T00:13:10.792Z,13.80
2023-05-10T00:15:37.551Z,13.80
2023-05-10T00:18:04.423Z,13.70
2023-05-10T00:20:31.129Z,13.70
2023-05-10T00:22:57.756Z,13.70
2023-05-10T00:25:24.646Z,13.70
2023-05-10T00:27:51.450Z,13.70
2023-05-10T00:30:18.555Z,13.70
2023-05-10T00:32:45.468Z,13.70
2023-05-10T00:35:12.180Z,13.60
2023-05-10T00:37:38.792Z,13.60
2023-05-10T00:40:06.760Z,13.60
2023-05-10T00:42:33.516Z,13.60
2023-05-10T00:45:00.304Z,13.60
2023-05-10T00:47:27.071Z,13.60
2023-05-10T00:49:54.004Z,13.50
2023-05-10T00:52:20.911Z,13.60
2023-05-10T00:54:48.668Z,13.50
2023-05-10T00:57:15.871Z,13.40
2023-05-10T00:59:42.664Z,13.40
2023-05-10T01:02:09.476Z,13.40
2023-05-10T01:04:36.903Z,13.40
2023-05-10T01:07:03.752Z,13.40
2023-05-10T01:09:30.682Z,13.40
2023-05-10T01:11:57.852Z,13.40
2023-05-10T01:14:25.786Z,13.40
2023-05-10T01:16:54.234Z,13.40
2023-05-10T01:19:27.105Z,13.40
2023-05-10T01:22:32.043Z,13.30
2023-05-10T01:25:35.409Z,13.30
2023-05-10T01:28:32.495Z,13.30
2023-05-10T01:31:11.257Z,13.30
2023-05-10T01:33:55.046Z,13.30
2023-05-10T01:36:43.055Z,13.20
2023-05-10T01:39:17.332Z,13.30
2023-05-10T01:42:04.650Z,13.30
2023-05-10T01:44:35.863Z,13.20
2023-05-10T01:47:16.820Z,13.20
2023-05-10T01:49:50.446Z,13.20
2023-05-10T01:52:20.778Z,13.20
2023-05-10T01:54:55.127Z,13.10
2023-05-10T01:57:24.056Z,13.10
2023-05-10T01:59:52.373Z,13.10
2023-05-10T02:02:22.250Z,13.10
2023-05-10T02:04:50.520Z,13.10
2023-05-10T02:07:18.392Z,13.00
2023-05-10T02:09:49.149Z,13.00
2023-05-10T02:12:17.205Z,12.90
2023-05-10T02:14:44.723Z,12.90
2023-05-10T02:17:12.915Z,12.90
2023-05-10T02:19:41.534Z,12.80
2023-05-10T02:22:09.872Z,12.80
2023-05-10T02:24:38.129Z,12.80
2023-05-10T02:27:05.993Z,12.80
2023-05-10T02:29:34.549Z,12.70
2023-05-10T02:32:02.521Z,12.70
2023-05-10T02:34:30.710Z,12.60
2023-05-10T02:36:57.877Z,12.60
2023-05-10T02:39:25.700Z,12.60
2023-05-10T02:41:54.669Z,12.70
2023-05-10T02:44:23.291Z,12.70
2023-05-10T02:46:50.725Z,12.70
2023-05-10T02:49:17.739Z,12.70
2023-05-10T02:51:52.579Z,12.70
2023-05-10T02:54:28.352Z,12.60
2023-05-10T02:57:03.912Z,12.60
2023-05-10T02:59:30.703Z,12.60
2023-05-10T03:01:57.432Z,12.50
2023-05-10T03:04:24.278Z,12.50
2023-05-10T03:06:51.628Z,12.40
2023-05-10T03:09:18.477Z,12.40
2023-05-10T03:12:08.441Z,12.40
2023-05-10T03:15:04.661Z,12.40
2023-05-10T03:18:00.560Z,12.40
2023-05-10T03:20:32.383Z,12.40
2023-05-10T03:23:18.200Z,12.30
2023-05-10T03:25:47.249Z,12.40
2023-05-10T03:28:16.483Z,12.40
2023-05-10T03:30:45.160Z,12.40
2023-05-10T03:33:12.032Z,12.40
2023-05-10T03:35:38.780Z,12.40
2023-05-10T03:38:05.672Z,12.50
2023-05-10T03:40:32.850Z,12.50
2023-05-10T03:43:00.180Z,12.50
2023-05-10T03:45:27.034Z,12.50
2023-05-10T03:47:54.943Z,12.40
2023-05-10T03:50:22.170Z,12.40
2023-05-10T03:52:49.337Z,12.40
2023-05-10T03:55:16.316Z,12.30
2023-05-10T03:57:43.262Z,12.30
2023-05-10T04:00:10.765Z,12.30
2023-05-10T04:02:38.449Z,12.30
2023-05-10T04:05:05.730Z,12.30
2023-05-10T04:07:32.449Z,12.30
2023-05-10T04:09:59.198Z,12.20
2023-05-10T04:12:26.033Z,12.20
2023-05-10T04:14:53.029Z,12.20
2023-05-10T04:17:19.788Z,12.40
2023-05-10T04:19:46.512Z,12.20
2023-05-10T04:22:13.233Z,12.20
2023-05-10T04:24:39.941Z,12.30
2023-05-10T04:27:06.666Z,12.20
2023-05-10T04:29:33.401Z,12.20
2023-05-10T04:32:00.168Z,12.20
2023-05-10T04:34:26.892Z,12.20
2023-05-10T04:36:53.757Z,12.20
2023-05-10T04:39:20.428Z,12.20
2023-05-10T04:41:47.136Z,12.30
2023-05-10T04:44:13.880Z,12.20
2023-05-10T04:46:40.766Z,12.30
2023-05-10T04:49:07.621Z,12.20
2023-05-10T04:51:34.318Z,12.20
2023-05-10T04:54:06.210Z,12.20
2023-05-10T04:56:33.685Z,12.20
2023-05-10T04:59:01.244Z,12.30
2023-05-10T05:01:28.070Z,12.30
2023-05-10T05:03:55.166Z,12.20
2023-05-10T05:06:22.312Z,12.30
2023-05-10T05:08:50.522Z,12.30
2023-05-10T05:11:18.193Z,12.30
2023-05-10T05:13:44.963Z,12.30
2023-05-10T05:16:12.451Z,12.30
2023-05-10T05:18:39.684Z,12.30
2023-05-10T05:21:27.889Z,12.30
2023-05-10T05:23:54.670Z,12.30
2023-05-10T05:26:21.341Z,12.30
2023-05-10T05:28:49.479Z,12.30
2023-05-10T05:31:16.164Z,12.30
2023-05-10T05:33:43.021Z,12.30
2023-05-10T05:36:10.025Z,12.30
2023-05-10T05:38:36.708Z,12.40
2023-05-10T05:41:04.031Z,12.40
2023-05-10T05:43:30.814Z,12.30
2023-05-10T05:45:59.069Z,12.30
2023-05-10T05:48:26.220Z,12.30
2023-05-10T05:50:57.027Z,12.30
2023-05-10T05:53:24.307Z,12.30
2023-05-10T05:55:58.843Z,12.40
2023-05-10T05:58:26.536Z,12.30
2023-05-10T06:00:53.711Z,12.40
2023-05-10T06:03:21.195Z,12.50
2023-05-10T06:05:48.168Z,12.40
2023-05-10T06:08:14.825Z,12.50
2023-05-10T06:10:41.627Z,12.50
2023-05-10T06:13:08.402Z,12.50
2023-05-10T06:15:35.674Z,12.60
2023-05-10T06:18:02.487Z,12.60
2023-05-10T06:20:29.448Z,12.60
2023-05-10T06:22:56.174Z,12.60
2023-05-10T06:25:22.933Z,12.60
2023-05-10T06:27:53.437Z,12.60
2023-05-10T06:30:21.245Z,12.70
2023-05-10T06:32:48.108Z,12.70
2023-05-10T06:35:15.165Z,12.60
2023-05-10T06:37:42.154Z,12.50
2023-05-10T06:40:09.264Z,12.70
2023-05-10T06:42:36.003Z,12.70
2023-05-10T06:45:03.249Z,12.70
2023-05-10T06:47:30.048Z,12.70
2023-05-10T06:49:56.876Z,12.70
2023-05-10T06:52:24.442Z,12.60
2023-05-10T06:54:51.338Z,12.60
2023-05-10T06:57:30.443Z,12.60
2023-05-10T06:59:58.917Z,12.70
2023-05-10T07:02:25.778Z,12.70
2023-05-10T07:04:53.259Z,12.70
2023-05-10T07:07:20.152Z,12.80
2023-05-10T07:09:47.330Z,12.80
2023-05-10T07:12:15.822Z,12.80
2023-05-10T07:14:43.160Z,12.90
2023-05-10T07:17:10.240Z,12.90
2023-05-10T07:19:37.128Z,13.00
2023-05-10T07:22:03.977Z,13.00
2023-05-10T07:24:32.290Z,13.00
2023-05-10T07:26:59.130Z,13.00
2023-05-10T07:29:26.017Z,13.10
2023-05-10T07:31:52.987Z,13.10
2023-05-10T07:34:19.909Z,13.10
2023-05-10T07:36:46.749Z,13.10
2023-05-10T07:39:18.691Z,13.10
2023-05-10T07:41:53.272Z,13.20
2023-05-10T07:44:21.358Z,13.20
2023-05-10T07:46:48.707Z,13.20
2023-05-10T07:49:15.542Z,13.20
2023-05-10T07:51:43.334Z,13.20
2023-05-10T07:54:10.162Z,13.20
2023-05-10T07:56:37.235Z,13.20
2023-05-10T07:59:05.975Z,13.20
2023-05-10T08:01:34.010Z,13.10
2023-05-10T08:04:01.267Z,13.20
2023-05-10T08:06:29.240Z,13.20
2023-05-10T08:08:56.617Z,13.20
2023-05-10T08:11:23.520Z,13.20
2023-05-10T08:13:51.551Z,13.20
2023-05-10T08:16:18.839Z,13.30
2023-05-10T08:18:47.904Z,13.30
2023-05-10T08:21:15.533Z,13.20
2023-05-10T08:23:42.516Z,13.30
2023-05-10T08:26:09.203Z,13.30
2023-05-10T08:28:35.994Z,13.40
2023-05-10T08:31:02.844Z,13.40
2023-05-10T08:33:29.716Z,13.50
2023-05-10T08:35:56.409Z,13.50
2023-05-10T08:38:23.293Z,13.60
2023-05-10T08:40:51.956Z,13.60
2023-05-10T08:43:19.358Z,13.70
2023-05-10T08:45:47.848Z,13.70
2023-05-10T08:48:16.327Z,13.70
2023-05-10T08:50:44.018Z,13.80
2023-05-10T08:53:12.702Z,13.80
2023-05-10T08:55:41.183Z,13.70
2023-05-10T08:58:08.890Z,13.70
2023-05-10T09:00:36.021Z,13.70
2023-05-10T09:03:05.016Z,13.80
2023-05-10T09:05:32.086Z,13.80
2023-05-10T09:08:01.453Z,13.80
2023-05-10T09:10:29.387Z,13.80
2023-05-10T09:12:59.388Z,13.80
2023-05-10T09:15:26.929Z,13.80
2023-05-10T09:17:55.482Z,13.90
2023-05-10T09:20:22.419Z,13.90
2023-05-10T09:22:49.424Z,14.00
2023-05-10T09:25:18.124Z,14.00
2023-05-10T09:27:47.212Z,14.00
2023-05-10T09:30:31.236Z,14.00
2023-05-10T09:32:59.571Z,14.10
2023-05-10T09:35:29.864Z,14.10
2023-05-10T09:38:00.942Z,14.00
2023-05-10T09:40:29.697Z,14.00
2023-05-10T09:43:11.838Z,14.00
2023-05-10T09:45:39.212Z,14.00
2023-05-10T09:48:07.005Z,14.00
2023-05-10T09:50:35.373Z,14.00
2023-05-10T09:53:04.479Z,14.00
2023-05-10T09:55:37.250Z,14.10
2023-05-10T09:58:05.351Z,14.20
2023-05-10T10:00:36.874Z,14.30
2023-05-10T10:03:04.412Z,14.30
2023-05-10T10:05:36.223Z,14.40
2023-05-10T10:08:07.200Z,14.50
2023-05-10T10:10:34.862Z,14.60
2023-05-10T10:13:02.076Z,14.70
2023-05-10T10:15:28.820Z,14.70
2023-05-10T10:17:55.800Z,14.70
2023-05-10T10:20:23.997Z,14.80
2023-05-10T10:22:51.284Z,14.80
2023-05-10T10:25:19.848Z,14.90
2023-05-10T10:27:57.613Z,14.80
2023-05-10T10:30:36.676Z,14.90
2023-05-10T10:33:37.308Z,14.80
2023-05-10T10:36:05.248Z,14.80
2023-05-10T10:39:00.137Z,14.90
2023-05-10T10:41:38.022Z,14.90
2023-05-10T10:44:26.158Z,15.00
2023-05-10T10:47:01.969Z,15.10
2023-05-10T10:49:29.101Z,15.30
2023-05-10T10:52:20.829Z,15.30
2023-05-10T10:55:07.678Z,15.20
2023-05-10T10:57:43.582Z,15.30
2023-05-10T11:00:38.576Z,15.10
2023-05-10T11:03:08.402Z,14.70
2023-05-10T11:05:45.163Z,14.30
2023-05-10T11:08:14.964Z,14.10
2023-05-10T11:10:54.645Z,13.80
2023-05-10T11:13:43.753Z,13.60
2023-05-10T11:16:24.603Z,13.50
2023-05-10T11:19:04.260Z,13.40
2023-05-10T11:21:35.206Z,13.30
2023-05-10T11:24:06.906Z,13.30
2023-05-10T11:26:36.263Z,13.30
2023-05-10T11:29:05.440Z,13.40
2023-05-10T11:31:32.412Z,13.50
2023-05-10T11:34:02.642Z,13.50
2023-05-10T11:36:39.029Z,13.60
2023-05-10T11:39:06.811Z,13.60
2023-05-10T11:41:33.822Z,13.60
2023-05-10T11:44:00.722Z,13.70
2023-05-10T11:46:29.365Z,13.70
2023-05-10T11:49:03.055Z,13.90
2023-05-10T11:51:30.002Z,13.90
2023-05-10T11:53:57.835Z,13.90
2023-05-10T11:56:25.796Z,13.90
2023-05-10T11:58:57.467Z,14.00
2023-05-10T12:01:25.971Z,14.10
2023-05-10T12:03:54.608Z,14.20
2023-05-10T12:06:22.899Z,14.50
2023-05-10T12:08:53.682Z,14.40
2023-05-10T12:11:22.657Z,14.40
2023-05-10T12:13:50.805Z,14.50
2023-05-10T12:16:23.149Z,14.40
2023-05-10T12:18:54.632Z,14.50
2023-05-10T12:21:22.602Z,14.50
2023-05-10T12:23:51.827Z,14.60
2023-05-10T12:26:19.109Z,14.60
2023-05-10T12:28:45.892Z,14.60
2023-05-10T12:31:12.706Z,14.60
2023-05-10T12:33:43.429Z,14.60
2023-05-10T12:36:12.138Z,14.50
2023-05-10T12:38:40.822Z,14.50
2023-05-10T12:41:09.467Z,14.50
2023-05-10T12:43:37.215Z,14.40
2023-05-10T12:46:09.049Z,14.30
2023-05-10T12:48:37.293Z,14.30
2023-05-10T12:51:05.413Z,14.30
2023-05-10T12:53:32.418Z,14.40
2023-05-10T12:55:59.164Z,14.40
2023-05-10T12:58:34.972Z,14.50
2023-05-10T13:01:03.454Z,14.50
2023-05-10T13:03:30.368Z,14.50
2023-05-10T13:05:57.285Z,14.60
2023-05-10T13:08:24.205Z,14.60
2023-05-10T13:10:51.105Z,14.60
2023-05-10T13:13:18.730Z,14.70
2023-05-10T13:15:45.608Z,14.70
2023-05-10T13:18:12.465Z,14.70
2023-05-10T13:20:39.382Z,14.60
2023-05-10T13:23:06.271Z,14.80
2023-05-10T13:25:33.034Z,14.80
2023-05-10T13:27:59.811Z,14.80
2023-05-10T13:30:26.518Z,14.90
2023-05-10T13:32:53.339Z,14.90
2023-05-10T13:35:20.227Z,14.90
2023-05-10T13:37:47.061Z,14.90
2023-05-10T13:40:14.601Z,14.90
2023-05-10T13:42:41.933Z,14.90
2023-05-10T13:45:08.989Z,14.90
2023-05-10T13:47:35.704Z,14.90
2023-05-10T13:50:03.758Z,14.80
2023-05-10T13:52:30.682Z,14.90
2023-05-10T13:54:58.202Z,14.90
2023-05-10T13:57:25.124Z,15.00
2023-05-10T13:59:52.422Z,15.00
2023-05-10T14:02:19.088Z,15.00
2023-05-10T14:04:45.890Z,15.10
2023-05-10T14:07:12.603Z,15.10
2023-05-10T14:09:39.353Z,15.10
2023-05-10T14:12:09.273Z,15.10
2023-05-10T14:14:36.082Z,15.10
2023-05-10T14:17:02.903Z,15.20
2023-05-10T14:19:31.686Z,15.20
2023-05-10T14:21:58.506Z,15.20
2023-05-10T14:24:25.254Z,15.30
2023-05-10T14:26:54.693Z,15.20
2023-05-10T14:29:22.219Z,15.20
2023-05-10T14:31:49.030Z,15.20
2023-05-10T14:34:16.125Z,15.20
2023-05-10T14:36:42.866Z,15.20
2023-05-10T14:39:11.126Z,15.20
2023-05-10T14:41:38.163Z,15.30
2023-05-10T14:44:04.881Z,15.30
2023-05-10T14:46:32.018Z,15.20
2023-05-10T14:48:58.940Z,15.20
2023-05-10T14:51:25.974Z,15.30
2023-05-10T14:53:52.702Z,15.30
2023-05-10T14:56:19.548Z,15.30
2023-05-10T14:58:46.242Z,15.40
2023-05-10T15:01:12.956Z,15.40
2023-05-10T15:03:40.315Z,15.40
2023-05-10T15:06:08.825Z,15.50
2023-05-10T15:08:35.929Z,15.50
2023-05-10T15:11:02.655Z,15.60
2023-05-10T15:13:29.855Z,15.50
2023-05-10T15:15:56.765Z,15.40
2023-05-10T15:18:26.425Z,15.50
2023-05-10T15:20:53.349Z,15.50
2023-05-10T15:23:20.056Z,15.50
2023-05-10T15:25:46.865Z,15.50
2023-05-10T15:28:13.753Z,15.50
2023-05-10T15:30:40.444Z,15.50
2023-05-10T15:33:08.075Z,15.60
2023-05-10T15:35:36.705Z,15.60
2023-05-10T15:38:03.664Z,15.50
2023-05-10T15:40:30.596Z,15.50
2023-05-10T15:42:57.445Z,15.50
2023-05-10T15:45:24.157Z,15.50
2023-05-10T15:47:51.021Z,15.50
2023-05-10T15:50:17.926Z,15.50
2023-05-10T15:52:44.717Z,15.60
2023-05-10T15:55:14.740Z,15.60
2023-05-10T15:57:43.836Z,15.50
2023-05-10T16:00:12.024Z,15.50
2023-05-10T16:02:39.773Z,15.50
2023-05-10T16:05:06.795Z,15.50
2023-05-10T16:07:34.135Z,15.50
2023-05-10T16:10:04.134Z,15.50
2023-05-10T16:12:31.454Z,15.40
2023-05-10T16:14:58.359Z,15.40
2023-05-10T16:17:25.368Z,15.40
2023-05-10T16:19:52.148Z,15.40
2023-05-10T16:22:19.061Z,15.30
2023-05-10T16:24:45.975Z,15.40
2023-05-10T16:27:13.261Z,15.40
2023-05-10T16:29:39.939Z,15.40
2023-05-10T16:32:06.994Z,15.40
2023-05-10T16:34:33.750Z,15.40
2023-05-10T16:37:00.448Z,15.40
2023-05-10T16:39:27.161Z,15.30
2023-05-10T16:41:53.943Z,15.30
2023-05-10T16:44:21.523Z,15.20
2023-05-10T16:46:49.124Z,15.20
2023-05-10T16:49:16.531Z,15.20
2023-05-10T16:51:43.452Z,15.20
2023-05-10T16:54:10.111Z,15.20
2023-05-10T16:56:36.836Z,15.20
2023-05-10T16:59:03.710Z,15.00
2023-05-10T17:01:30.598Z,14.90
2023-05-10T17:03:57.415Z,14.90
2023-05-10T17:06:24.126Z,14.80
2023-05-10T17:08:50.972Z,14.80
2023-05-10T17:11:19.917Z,14.80
2023-05-10T17:13:46.971Z,14.80
2023-05-10T17:16:13.766Z,14.70
2023-05-10T17:18:42.467Z,14.80
2023-05-10T17:21:09.612Z,14.80
2023-05-10T17:23:36.333Z,14.80
2023-05-10T17:26:06.604Z,14.80
2023-05-10T17:28:33.370Z,14.80
2023-05-10T17:31:00.372Z,14.80
2023-05-10T17:33:27.137Z,14.80
2023-05-10T17:35:54.007Z,14.80
2023-05-10T17:38:20.701Z,14.80
2023-05-10T17:40:47.428Z,14.80
2023-05-10T17:43:14.128Z,14.70
2023-05-10T17:45:41.112Z,14.70
2023-05-10T17:48:08.053Z,14.60
2023-05-10T17:50:35.368Z,14.60
2023-05-10T17:53:02.998Z,14.50
2023-05-10T17:55:30.764Z,14.50
2023-05-10T17:57:59.595Z,14.40
2023-05-10T18:00:26.384Z,14.40
2023-05-10T18:02:55.502Z,14.30
2023-05-10T18:05:23.145Z,14.20
2023-05-10T18:07:50.334Z,14.20
2023-05-10T18:10:17.200Z,14.20
2023-05-10T18:12:44.380Z,14.20
2023-05-10T18:15:11.248Z,14.10
2023-05-10T18:17:38.098Z,14.10
2023-05-10T18:20:06.071Z,14.10
2023-05-10T18:22:33.319Z,14.00
2023-05-10T18:25:00.293Z,14.00
2023-05-10T18:27:27.115Z,14.00
2023-05-10T18:29:54.258Z,13.90
2023-05-10T18:32:21.006Z,13.90
2023-05-10T18:34:47.665Z,13.90
2023-05-10T18:37:15.625Z,13.80
2023-05-10T18:39:42.417Z,13.80
2023-05-10T18:42:09.296Z,13.80
2023-05-10T18:44:36.190Z,13.80
2023-05-10T18:47:02.942Z,13.80
2023-05-10T18:49:29.843Z,13.70
2023-05-10T18:51:56.545Z,13.70
2023-05-10T18:57:28.244Z,13.70
2023-05-10T19:00:20.317Z,13.70
2023-05-10T19:03:08.459Z,13.70
2023-05-10T19:06:00.475Z,13.70
2023-05-10T19:08:41.792Z,13.60
2023-05-10T19:11:08.659Z,13.60
2023-05-10T19:13:35.543Z,13.60
2023-05-10T19:16:10.562Z,13.50
2023-05-10T19:18:37.829Z,13.50
2023-05-10T19:21:08.799Z,13.40
2023-05-10T19:23:35.613Z,13.30
2023-05-10T19:26:02.499Z,13.20
2023-05-10T19:28:29.408Z,13.20
2023-05-10T19:30:56.619Z,13.20
2023-05-10T19:33:23.568Z,13.20
2023-05-10T19:35:53.601Z,13.30
2023-05-10T19:38:24.151Z,13.30
2023-05-10T19:40:57.438Z,13.30
2023-05-10T19:43:28.832Z,13.30
2023-05-10T19:45:59.221Z,13.20
2023-05-10T19:48:26.533Z,13.20
2023-05-10T19:50:54.607Z,13.20
2023-05-10T19:53:21.598Z,13.10
2023-05-10T19:55:48.438Z,13.20
2023-05-10T19:58:15.191Z,13.10
2023-05-10T20:00:41.988Z,13.10
2023-05-10T20:03:09.484Z,13.10
2023-05-10T20:05:36.305Z,13.00
2023-05-10T20:08:04.890Z,12.90
2023-05-10T20:10:31.594Z,12.90
2023-05-10T20:12:59.056Z,12.80
2023-05-10T20:15:25.876Z,12.80
2023-05-10T20:17:55.835Z,12.80
2023-05-10T20:20:22.665Z,12.80
2023-05-10T20:22:50.065Z,12.70
2023-05-10T20:25:18.098Z,12.70
2023-05-10T20:27:45.028Z,12.70
2023-05-10T20:30:12.562Z,12.60
2023-05-10T20:32:58.179Z,12.60
2023-05-10T20:35:24.920Z,12.60
2023-05-10T20:37:51.683Z,12.60
2023-05-10T20:40:18.787Z,12.60
2023-05-10T20:42:45.831Z,12.60
2023-05-10T20:45:12.757Z,12.50
2023-05-10T20:47:39.533Z,12.50
2023-05-10T20:50:07.045Z,12.50
2023-05-10T20:52:33.883Z,12.50
2023-05-10T20:55:00.592Z,12.50
2023-05-10T20:57:27.337Z,12.50
2023-05-10T20:59:54.952Z,12.50
2023-05-10T21:02:21.698Z,12.50
2023-05-10T21:04:48.599Z,12.50
2023-05-10T21:07:16.031Z,12.50
2023-05-10T21:09:43.039Z,12.50
2023-05-10T21:12:10.010Z,12.50
2023-05-10T21:14:36.911Z,12.40
2023-05-10T21:17:04.370Z,12.40
2023-05-10T21:19:31.346Z,12.40
2023-05-10T21:21:59.674Z,12.40
2023-05-10T21:24:26.675Z,12.40
2023-05-10T21:26:53.494Z,12.30
2023-05-10T21:29:20.278Z,12.30
2023-05-10T21:31:47.210Z,12.20
2023-05-10T21:34:14.178Z,12.20
2023-05-10T21:36:40.864Z,12.20
2023-05-10T21:39:07.647Z,12.20
2023-05-10T21:41:34.489Z,12.20
2023-05-10T21:44:01.328Z,12.10
2023-05-10T21:46:28.140Z,12.20
2023-05-10T21:48:55.177Z,12.20
2023-05-10T21:51:22.338Z,12.10
2023-05-10T21:53:49.199Z,12.10
2023-05-10T21:56:15.929Z,12.00
2023-05-10T21:58:42.598Z,12.00
2023-05-10T22:01:09.457Z,12.00
2023-05-10T22:03:36.248Z,12.00
2023-05-10T22:06:03.123Z,12.00
2023-05-10T22:08:29.857Z,12.00
2023-05-10T22:10:56.580Z,11.90
2023-05-10T22:13:23.301Z,11.90
2023-05-10T22:15:50.162Z,11.90
2023-05-10T22:18:17.215Z,11.90
2023-05-10T22:20:46.758Z,11.80
2023-05-10T22:23:14.033Z,11.80
2023-05-10T22:25:40.842Z,11.80
2023-05-10T22:28:09.198Z,11.80
2023-05-10T22:30:36.069Z,11.80
2023-05-10T22:33:03.042Z,11.80
2023-05-10T22:35:29.809Z,11.90
2023-05-10T22:37:56.665Z,11.80
2023-05-10T22:40:23.479Z,11.80
2023-05-10T22:42:50.206Z,11.70
2023-05-10T22:45:17.239Z,11.70
2023-05-10T22:47:43.965Z,11.70
2023-05-10T22:50:11.915Z,11.70
2023-05-10T22:52:39.394Z,11.70
2023-05-10T22:55:07.191Z,11.70
2023-05-10T22:57:34.301Z,11.70
2023-05-10T23:00:01.152Z,11.60
2023-05-10T23:02:27.915Z,11.60
2023-05-10T23:04:54.781Z,11.60
2023-05-10T23:07:21.500Z,11.60
2023-05-10T23:09:48.858Z,11.60
2023-05-10T23:12:16.004Z,11.50
2023-05-10T23:14:42.750Z,11.50
2023-05-10T23:17:09.476Z,11.50
2023-05-10T23:19:36.171Z,11.40
2023-05-10T23:22:02.835Z,11.40
2023-05-10T23:24:29.579Z,11.40
2023-05-10T23:26:56.367Z,11.30
2023-05-10T23:29:23.965Z,11.40
2023-05-10T23:31:51.298Z,11.40
2023-05-10T23:34:18.249Z,11.30
2023-05-10T23:36:44.947Z,11.30
2023-05-10T23:39:11.985Z,11.30
2023-05-10T23:41:38.904Z,11.30
2023-05-10T23:44:05.632Z,11.30
2023-05-10T23:46:32.465Z,11.30
2023-05-10T23:48:59.134Z,11.30
2023-05-10T23:51:26.072Z,11.30
2023-05-10T23:53:52.827Z,11.30
2023-05-10T23:56:19.469Z,11.30
2023-05-10T23:58:46.461Z,11.20
